KSMF data

Available data for KSMF from the past 2 hours
SACRAMENTO/METRO, CA
Metar
KSMF 221653Z 30006KT 10SM CLR 27/10 A2992 RMK AO2 SLP132 T02720100

16:53 UTC

Wind: 300° 6kt

Visibility: 10 SM

Sky:

Temp: 27 deg C / 80.6 deg F

Dewpoint: 10 deg C / 50 deg F

Pressure: 29.92 inHg

TAF
KSMF 221120Z 2212/2312 16006KT P6SM SKC FM221700 33007KT P6SM SKC FM230300 16006KT P6SM SKC